x

West Moresby (46208) Wave Buoy

5:00pm - Sun 24th May 2015 All times are PDT. -7 hours from GMT.

  • Sig Wave height 4.6ft
  • Peak Period 10s
  • Wind
    16mph, 18mph gusts
  • Sea Temp 51°f
  • Air Temp 51°f
  • Sea Pressure 1022.8mb
  • West Moresby
  • West Moresby

More Historic Weather Station data

Upgrade to MSW Pro to gain access to the past 30 days of data for over 8000 Wavebouys and Weather Stations around the globe.

Join Pro

Comparision Forecast

View Surf forecast
   
Sun 05/24 5:00pm 4.5ft 10s 16 18 mph 1022.8mb 51f 51f
4:00pm 4.5ft 11s 16 18 mph 1023.3mb 51f 51f
3:00pm 5ft 10s 18 20 mph 1023.6mb 51f 51f
2:00pm 5ft 11s 18 22 mph 1023.6mb 51f 51f
1:00pm 5ft 11s 18 22 mph 1024mb 51f 50f
12:00pm 5ft 11s 16 18 mph 1024.2mb 51f 50f
11:00am 5ft 10s 16 18 mph 1024.4mb 51f 50f
10:00am 5ft 11s 16 20 mph 1024.5mb 51f 50f
9:00am 5.5ft 11s 18 22 mph 1024.4mb 51f 50f
8:00am 5.5ft 10s 18 22 mph 1024.8mb 51f 50f
6:00am 5.5ft 11s 20 22 mph 1024.6mb 51f 49f
5:00am 5.5ft 12s 18 22 mph 1024.5mb 51f 49f
4:00am 5.5ft 11s 20 22 mph 1024.7mb 51f 49f
3:00am 6ft 12s 18 22 mph 1024.7mb 51f 49f
2:00am 5.5ft 11s 20 25 mph 1025mb 51f 49f
1:00am 6ft 11s 20 22 mph 1025.3mb 51f 49f
12:00am 6ft 11s 18 22 mph 1025.5mb 51f 50f
Sat 05/23 11:00pm 6ft 10s 20 22 mph 1025.3mb 51f 50f
10:00pm 6ft 11s 20 25 mph 1025mb 51f 49f
9:00pm 6ft 10s 20
mph
1024.8mb 51f 49f
8:00pm 6ft 11s 22 27 mph 1024.6mb 51f 49f
7:00pm 6ft 11s 20 22 mph 1024.6mb 51f 49f
6:00pm 6ft 11s 20 25 mph 1024.6mb 51f 50f
5:00pm 6ft 12s 18 22 mph 1024.8mb 51f 50f
4:00pm 6ft 10s 18 25 mph 1025mb 51f 50f
3:00pm 6ft 7s 20 25 mph 1025.1mb 50f 49f
2:00pm 6ft 7s 18 22 mph 1024.9mb 50f 50f
1:00pm 6ft 7s 20 25 mph 1024.7mb 50f 49f
12:00pm 6.5ft 8s 18 22 mph 1024mb 50f 49f
11:00am 6.5ft 11s 18 22 mph 1023.5mb 50f 49f
10:00am 7ft 10s 18 22 mph 1023.1mb 50f 49f
9:00am 7ft 11s 18 22 mph 1023mb 50f 49f
8:00am 7ft 12s 20 25 mph 1022.6mb 50f 49f
7:00am 7.5ft 12s 20 25 mph 1022.3mb 50f 49f
6:00am 7ft 12s 20 25 mph 1021.7mb 50f 49f
5:00am 7.5ft 11s 22 27 mph 1021.6mb 50f 48f
4:00am 7.5ft 12s 20 25 mph 1021.4mb 50f 49f
3:00am 8ft 12s 20 25 mph 1021.2mb 50f 49f
2:00am 7ft 8s 22 27 mph 1021.2mb 50f 49f
1:00am 7ft 8s 20 25 mph 1021mb 50f 49f
12:00am 7ft 8s 20 27 mph 1020.8mb 51f 49f
Fri 05/22 11:00pm 8ft 12s 22 27 mph 1020.7mb 51f 49f
10:00pm 8ft 6s 25 29 mph 1020mb 51f 50f
9:00pm 8.5ft 8s 22 27 mph 1019.7mb 51f 50f
8:00pm 8ft 8s 25 31 mph 1019.4mb 51f 50f
7:00pm 9ft 8s 25 31 mph 1019.2mb 51f 50f
6:00pm  -   -  25
mph
- - -
4:00pm  -   -  25
mph
1019.1mb 51f 50f
3:00pm 9ft 7s 25 31 mph 1019.1mb 51f 50f
2:00pm  -   -  27
mph
1018.9mb - 50f
1:00pm 8ft 8s 25 31 mph 1018.9mb 51f 50f
12:00pm 8.5ft 7s 27 34 mph 1018.6mb 51f 50f
11:00am 8ft 8s 25 29 mph 1018.7mb 51f 50f
10:00am 8ft 6s 25 29 mph 1018.8mb 51f 50f
9:00am 8.5ft 8s 25 31 mph 1018.6mb 51f 50f
8:00am 8.5ft 8s 25 31 mph 1018.4mb 51f 49f
7:00am 9ft 7s 27 36 mph 1018.3mb 51f 49f
6:00am 8.5ft 8s 27 36 mph 1018.2mb 51f 49f
5:00am 8.5ft 7s 27 36 mph 1018mb 51f 49f
4:00am 8ft 7s 27 34 mph 1017.9mb 51f 49f
3:00am 8.5ft 7s 27 34 mph 1017.6mb 51f 49f
2:00am 8.5ft 7s 27 31 mph 1017.9mb 51f 49f
1:00am 9ft 7s 25 31 mph 1018.1mb 51f 49f
12:00am 9ft 8s 27 34 mph 1018.1mb 51f 49f
Thu 05/21 11:00pm 8.5ft 7s 27 34 mph 1018mb 51f 49f
10:00pm 9ft 8s 27 34 mph 1017.6mb 51f 49f
9:00pm 8ft 7s 29 34 mph 1017.2mb 51f 49f
8:00pm 8ft 6s 27 34 mph 1017mb 51f 50f
7:00pm 8ft 6s 27 31 mph 1016.9mb 51f 50f
6:00pm 8ft 7s 27 31 mph 1017mb 51f 50f
5:00pm 8ft 6s 27 31 mph 1017.3mb 51f 50f
4:00pm 7.5ft 7s 22 29 mph 1017.6mb 51f 50f
3:00pm 8ft 6s 25 31 mph 1017.8mb 51f 50f
2:00pm 8ft 7s 25 31 mph 1017.9mb 51f 50f
1:00pm 8ft 7s 27 34 mph 1017.7mb 51f 49f
12:00pm 7.5ft 7s 27 34 mph 1017.8mb 51f 49f
11:00am 7.5ft 6s 25 29 mph 1017.9mb 51f 49f
10:00am 7.5ft 6s 25 31 mph 1018.1mb 51f 49f
9:00am 7ft 6s 25 31 mph 1018.1mb 51f 48f
8:00am 7ft 6s 25 31 mph 1017.9mb 51f 48f
7:00am 7ft 6s 25 29 mph 1017.9mb 51f 48f
6:00am 6.5ft 6s 22 27 mph 1018mb 51f 48f
5:00am 7ft 5s 25 29 mph 1018.2mb 51f 48f
4:00am 7ft 6s 22 29 mph 1018.4mb 51f 48f
3:00am 7ft 6s 22 29 mph 1018.5mb 51f 49f
2:00am 7.5ft 6s 22 27 mph 1018.6mb 51f 49f